createdAt,value
2018-06-28T00:00:56.101Z,44.34
2018-06-28T00:01:56.094Z,45.56
2018-06-28T00:02:56.085Z,46.42
2018-06-28T00:03:56.079Z,46.61
2018-06-28T00:04:56.070Z,46.99
2018-06-28T00:05:56.064Z,47.85
2018-06-28T00:06:56.057Z,48.42
2018-06-28T00:07:56.045Z,49.37
2018-06-28T00:08:56.298Z,48.52
2018-06-28T00:09:56.036Z,48.61
2018-06-28T00:10:56.022Z,47.94
2018-06-28T00:11:55.756Z,48.04
2018-06-28T00:12:56.006Z,47.08
2018-06-28T00:13:55.999Z,46.61
2018-06-28T00:14:55.994Z,47.85
2018-06-28T00:15:55.986Z,47.85
2018-06-28T00:16:55.975Z,47.94
2018-06-28T00:17:55.970Z,47.66
2018-06-28T00:18:55.964Z,48.04
2018-06-28T00:19:55.954Z,48.32
2018-06-28T00:20:55.946Z,48.23
2018-06-28T00:21:55.679Z,47.66
2018-06-28T00:22:55.931Z,47.66
2018-06-28T00:23:55.921Z,46.89
2018-06-28T00:24:55.912Z,44.96
2018-06-28T00:25:55.907Z,44.13
2018-06-28T00:26:55.894Z,45.15
2018-06-28T00:27:55.886Z,45.83
2018-06-28T00:28:55.884Z,46.51
2018-06-28T00:29:55.873Z,46.97
2018-06-28T00:30:55.866Z,46.2
2018-06-28T00:31:55.856Z,45.44
2018-06-28T00:32:55.852Z,45.06
2018-06-28T00:33:55.842Z,45.25
2018-06-28T00:34:55.574Z,45.63
2018-06-28T00:35:55.824Z,45.63
2018-06-28T00:36:55.820Z,45.73
2018-06-28T00:37:55.808Z,44.78
2018-06-28T00:38:55.797Z,44.59
2018-06-28T00:39:55.789Z,43.91
2018-06-28T00:40:55.523Z,44.59
2018-06-28T00:41:55.774Z,44.39
2018-06-28T00:42:55.770Z,42.77
2018-06-28T00:43:55.760Z,40.68
2018-06-28T00:44:55.750Z,39.15
2018-06-28T00:45:55.493Z,38.58
2018-06-28T00:46:55.740Z,37.92
2018-06-28T00:47:55.727Z,38.01
2018-06-28T00:48:55.713Z,38.29
2018-06-28T00:49:55.705Z,38.78
2018-06-28T00:50:55.701Z,39.34
2018-06-28T00:51:55.689Z,40.3
2018-06-28T00:52:55.684Z,40.58
2018-06-28T00:53:55.675Z,40.77
2018-06-28T00:54:55.408Z,40.11
2018-06-28T00:55:55.406Z,40.01
2018-06-28T00:56:55.650Z,39.63
2018-06-28T00:57:55.642Z,39.34
2018-06-28T00:58:55.634Z,38.78
2018-06-28T00:59:55.623Z,39.15
2018-06-28T01:00:55.618Z,39.44
2018-06-28T01:01:55.353Z,39.73
2018-06-28T01:02:55.601Z,40.01
2018-06-28T01:03:55.590Z,38.58
2018-06-28T01:04:55.325Z,39.25
2018-06-28T01:05:55.317Z,40.01
2018-06-28T01:06:55.574Z,38.49
2018-06-28T01:07:55.563Z,38.58
2018-06-28T01:08:55.552Z,39.73
2018-06-28T01:09:55.543Z,41.25
2018-06-28T01:10:55.278Z,41.25
2018-06-28T01:11:55.522Z,39.73
2018-06-28T01:12:55.518Z,38.1
2018-06-28T01:13:55.507Z,35.82
2018-06-28T01:14:55.501Z,34.11
2018-06-28T01:15:55.234Z,33.53
2018-06-28T01:16:55.481Z,33.53
2018-06-28T01:17:55.474Z,33.91
2018-06-28T01:18:55.468Z,34.48
2018-06-28T01:19:55.457Z,34.96
2018-06-28T01:20:55.450Z,35.06
2018-06-28T01:21:55.184Z,35.35
2018-06-28T01:22:55.437Z,35.06
2018-06-28T01:23:55.170Z,34.77
2018-06-28T01:24:55.414Z,34.87
2018-06-28T01:25:55.404Z,34.11
2018-06-28T01:26:55.397Z,31.63
2018-06-28T01:27:55.131Z,30.96
2018-06-28T01:28:55.386Z,30.96
2018-06-28T01:29:55.369Z,31.53
2018-06-28T01:30:55.363Z,33.06
2018-06-28T01:31:55.356Z,34.11
2018-06-28T01:32:55.346Z,34.18
2018-06-28T01:33:55.335Z,34.18
2018-06-28T01:34:55.328Z,34.85
2018-06-28T01:35:55.317Z,34.75
2018-06-28T01:36:55.313Z,34.47
2018-06-28T01:37:55.307Z,34.75
2018-06-28T01:38:55.295Z,34.09
2018-06-28T01:39:55.287Z,34.94
2018-06-28T01:40:55.020Z,35.8
2018-06-28T01:41:55.267Z,36.08
2018-06-28T01:42:55.002Z,35.61
2018-06-28T01:43:55.250Z,35.23
2018-06-28T01:44:55.240Z,34.75
2018-06-28T01:45:55.233Z,32.66
2018-06-28T01:46:55.451Z,31.52
2018-06-28T01:47:55.213Z,30.76
2018-06-28T01:48:55.205Z,30.37
2018-06-28T01:49:55.201Z,30.09
2018-06-28T01:50:55.197Z,29.33
2018-06-28T01:51:54.923Z,28.75
2018-06-28T01:52:55.217Z,28.56
2018-06-28T01:53:55.163Z,27.99
2018-06-28T01:54:54.896Z,27.99
2018-06-28T01:55:55.146Z,27.9
2018-06-28T01:56:55.136Z,28.56
2018-06-28T01:57:55.130Z,29.42
2018-06-28T01:58:55.121Z,30.09
2018-06-28T01:59:55.109Z,30.66
2018-06-28T02:00:55.103Z,31.52
2018-06-28T02:01:55.093Z,31.42
2018-06-28T02:02:54.829Z,30.28
2018-06-28T02:03:55.076Z,29.61
2018-06-28T02:04:55.067Z,28.28
2018-06-28T02:05:55.056Z,27.14
2018-06-28T02:06:55.049Z,25.61
2018-06-28T02:07:55.042Z,25.03
2018-06-28T02:08:54.773Z,24.27
2018-06-28T02:09:55.018Z,22.94
2018-06-28T02:10:55.015Z,22.36
2018-06-28T02:11:55.001Z,23.22
2018-06-28T02:12:54.991Z,24.38
2018-06-28T02:13:54.989Z,24.74
2018-06-28T02:14:54.974Z,24.37
2018-06-28T02:15:54.709Z,24.46
2018-06-28T02:16:54.956Z,24.55
2018-06-28T02:17:54.947Z,24.55
2018-06-28T02:18:54.939Z,23.5
2018-06-28T02:19:54.930Z,22.65
2018-06-28T02:20:54.664Z,22.36
2018-06-28T02:21:54.655Z,22.65
2018-06-28T02:22:54.648Z,22.65
2018-06-28T02:23:54.892Z,23.22
2018-06-28T02:24:54.883Z,23.79
2018-06-28T02:25:54.876Z,23.98
2018-06-28T02:26:54.864Z,23.03
2018-06-28T02:27:54.599Z,22.94
2018-06-28T02:28:54.590Z,22.74
2018-06-28T02:29:54.582Z,22.74
2018-06-28T02:30:54.572Z,22.27
2018-06-28T02:31:54.822Z,22.74
2018-06-28T02:32:54.811Z,21.7
2018-06-28T02:33:54.801Z,21.32
2018-06-28T02:34:54.792Z,21.12
2018-06-28T02:35:54.786Z,21.22
2018-06-28T02:36:54.773Z,21.79
2018-06-28T02:37:54.768Z,21.98
2018-06-28T02:38:54.765Z,22.65
2018-06-28T02:39:54.750Z,23.03
2018-06-28T02:40:54.740Z,23.32
2018-06-28T02:41:54.727Z,22.94
2018-06-28T02:42:54.721Z,21.98
2018-06-28T02:43:54.709Z,21.89
2018-06-28T02:44:54.702Z,21.6
2018-06-28T02:45:54.693Z,21.32
2018-06-28T02:46:54.686Z,20.56
2018-06-28T02:47:54.417Z,20.46
2018-06-28T02:48:54.671Z,20.56
2018-06-28T02:49:54.655Z,20.08
2018-06-28T02:50:54.645Z,20.37
2018-06-28T02:51:54.687Z,20.37
2018-06-28T02:52:54.626Z,20.65
2018-06-28T02:53:54.625Z,20.27
2018-06-28T02:54:54.350Z,20.65
2018-06-28T02:55:54.604Z,19.98
2018-06-28T02:56:54.588Z,20.27
2018-06-28T02:57:54.324Z,20.27
2018-06-28T02:58:54.571Z,20.46
2018-06-28T02:59:54.575Z,20.27
2018-06-28T03:00:54.566Z,19.89
2018-06-28T03:01:54.287Z,19.13
2018-06-28T03:02:54.539Z,17.99
2018-06-28T03:03:54.525Z,17.13
2018-06-28T03:04:54.257Z,17.22
2018-06-28T03:05:54.506Z,17.03
2018-06-28T03:06:54.255Z,16.75
2018-06-28T03:07:54.486Z,16.85
2018-06-28T03:08:54.481Z,16.65
2018-06-28T03:09:54.472Z,16.27
2018-06-28T03:10:54.460Z,15.89
2018-06-28T03:11:54.458Z,15.61
2018-06-28T03:12:54.441Z,15.51
2018-06-28T03:13:54.438Z,15.23
2018-06-28T03:14:54.163Z,13.89
2018-06-28T03:15:54.413Z,12.85
2018-06-28T03:16:54.403Z,12.65
2018-06-28T03:17:54.395Z,12.94
2018-06-28T03:18:54.386Z,13.23
2018-06-28T03:19:54.377Z,13.89
2018-06-28T03:20:54.367Z,15.23
2018-06-28T03:21:54.361Z,15.89
2018-06-28T03:22:54.353Z,16.27
2018-06-28T03:23:54.339Z,16.75
2018-06-28T03:24:54.327Z,16.94
2018-06-28T03:25:54.321Z,17.03
2018-06-28T03:26:54.309Z,17.89
2018-06-28T03:27:54.044Z,16.85
2018-06-28T03:28:54.292Z,16.65
2018-06-28T03:29:54.283Z,16.75
2018-06-28T03:30:54.390Z,16.75
2018-06-28T03:31:54.264Z,16.85
2018-06-28T03:32:53.996Z,17.8
2018-06-28T03:33:54.243Z,18.08
2018-06-28T03:34:54.233Z,18.08
2018-06-28T03:35:54.227Z,17.13
2018-06-28T03:36:54.222Z,16.94
2018-06-28T03:37:54.462Z,16.56
2018-06-28T03:38:53.939Z,16.65
2018-06-28T03:39:53.938Z,16.75
2018-06-28T03:40:54.178Z,16.56
2018-06-28T03:41:54.169Z,16.75
2018-06-28T03:42:53.904Z,16.65
2018-06-28T03:43:54.152Z,15.8
2018-06-28T03:44:54.144Z,15.8
2018-06-28T03:45:54.268Z,15.61
2018-06-28T03:46:54.126Z,16.19
2018-06-28T03:47:54.119Z,16.27
2018-06-28T03:48:54.109Z,16.75
2018-06-28T03:49:54.100Z,16.95
2018-06-28T03:50:54.088Z,16.56
2018-06-28T03:51:54.076Z,16.56
2018-06-28T03:52:54.066Z,16.19
2018-06-28T03:53:54.059Z,16
2018-06-28T03:54:54.051Z,16.09
2018-06-28T03:55:53.782Z,16.09
2018-06-28T03:56:54.030Z,15.9
2018-06-28T03:57:54.021Z,16.66
2018-06-28T03:58:54.011Z,17.04
2018-06-28T03:59:54.018Z,17.33
2018-06-28T04:00:53.994Z,17.71
2018-06-28T04:01:53.726Z,17.8
2018-06-28T04:02:53.977Z,17.9
2018-06-28T04:03:53.708Z,17.9
2018-06-28T04:04:53.698Z,17.8
2018-06-28T04:05:53.945Z,18.09
2018-06-28T04:06:53.681Z,18.57
2018-06-28T04:07:53.670Z,18.85
2018-06-28T04:08:53.925Z,19.33
2018-06-28T04:09:53.652Z,19.52
2018-06-28T04:10:53.901Z,19.61
2018-06-28T04:11:53.635Z,19.52
2018-06-28T04:12:53.882Z,20
2018-06-28T04:13:53.881Z,20.09
2018-06-28T04:14:53.863Z,20.09
2018-06-28T04:15:53.862Z,20
2018-06-28T04:16:53.589Z,20.37
2018-06-28T04:17:53.838Z,20.28
2018-06-28T04:18:53.831Z,20
2018-06-28T04:19:53.831Z,20
2018-06-28T04:20:53.811Z,20.29
2018-06-28T04:21:53.801Z,20.2
2018-06-28T04:22:53.795Z,20.76
2018-06-28T04:23:53.780Z,21.24
2018-06-28T04:24:53.772Z,21.91
2018-06-28T04:25:53.509Z,22.77
2018-06-28T04:26:53.756Z,23.05
2018-06-28T04:27:53.748Z,22.96
2018-06-28T04:28:53.745Z,23.72
2018-06-28T04:29:53.731Z,24.1
2018-06-28T04:30:53.726Z,25.53
2018-06-28T04:31:53.720Z,26.39
2018-06-28T04:32:53.708Z,27.06
2018-06-28T04:33:53.703Z,27.81
2018-06-28T04:34:53.685Z,28.2
2018-06-28T04:35:53.678Z,28.59
2018-06-28T04:36:53.668Z,28.97
2018-06-28T04:37:53.669Z,29.64
2018-06-28T04:38:53.394Z,30.88
2018-06-28T04:39:53.641Z,30.6
2018-06-28T04:40:53.383Z,31.16
2018-06-28T04:41:53.366Z,31.55
2018-06-28T04:42:53.623Z,32.31
2018-06-28T04:43:53.607Z,32.6
2018-06-28T04:44:53.602Z,32.6
2018-06-28T04:45:53.589Z,32.69
2018-06-28T04:46:53.582Z,32.79
2018-06-28T04:47:53.573Z,33.26
2018-06-28T04:48:53.310Z,34.23
2018-06-28T04:49:53.674Z,34.14
2018-06-28T04:50:53.549Z,33.28
2018-06-28T04:51:53.281Z,32.81
2018-06-28T04:52:53.533Z,32.9
2018-06-28T04:53:53.526Z,33.85
2018-06-28T04:54:53.515Z,34.71
2018-06-28T04:55:53.514Z,36.35
2018-06-28T04:56:53.500Z,37.12
2018-06-28T04:57:53.491Z,38.54
2018-06-28T04:58:53.533Z,40.66
2018-06-28T04:59:53.490Z,43.05
2018-06-28T05:00:53.471Z,45.15
2018-06-28T05:01:53.462Z,50.12
2018-06-28T05:02:53.454Z,54.79
2018-06-28T05:03:53.449Z,59.31
2018-06-28T05:04:53.440Z,64.37
2018-06-28T05:05:53.430Z,67.05
2018-06-28T05:06:53.427Z,68.96
2018-06-28T05:07:53.419Z,70.77
2018-06-28T05:08:53.408Z,71.15
2018-06-28T05:09:53.402Z,71.34
2018-06-28T05:10:53.142Z,71.25
2018-06-28T05:11:53.386Z,73.29
2018-06-28T05:12:53.379Z,75.59
2018-06-28T05:13:53.381Z,75.96
2018-06-28T05:14:53.370Z,77.01
2018-06-28T05:15:53.357Z,78.26
2018-06-28T05:16:53.355Z,80.65
2018-06-28T05:17:53.352Z,83.23
2018-06-28T05:18:53.336Z,84.56
2018-06-28T05:19:53.332Z,85.52
2018-06-28T05:20:53.068Z,87.05
2018-06-28T05:21:53.315Z,87.53
2018-06-28T05:22:53.375Z,88.01
2018-06-28T05:23:53.305Z,88.87
2018-06-28T05:24:53.298Z,88.96
2018-06-28T05:25:53.296Z,88.48
2018-06-28T05:26:53.287Z,89.92
2018-06-28T05:27:53.281Z,90.49
2018-06-28T05:28:53.276Z,88.39
2018-06-28T05:29:53.267Z,85.33
2018-06-28T05:30:53.257Z,86.29
2018-06-28T05:31:53.255Z,84.56
2018-06-28T05:32:53.362Z,83.33
2018-06-28T05:33:52.983Z,81.99
2018-06-28T05:34:53.298Z,82.94
2018-06-28T05:35:53.229Z,81.89
2018-06-28T05:36:52.964Z,81.99
2018-06-28T05:37:52.958Z,83.37
2018-06-28T05:38:53.210Z,85.18
2018-06-28T05:39:53.204Z,87.29
2018-06-28T05:40:53.201Z,87.86
2018-06-28T05:41:53.193Z,88.62
2018-06-28T05:42:53.186Z,88.81
2018-06-28T05:43:53.181Z,87.86
2018-06-28T05:44:53.174Z,88.15
2018-06-28T05:45:53.167Z,89.1
2018-06-28T05:46:53.167Z,91.88
2018-06-28T05:47:53.159Z,92.54
2018-06-28T05:48:53.148Z,92.07
2018-06-28T05:49:52.884Z,92.11
2018-06-28T05:50:53.147Z,93.07
2018-06-28T05:51:53.130Z,93.55
2018-06-28T05:52:53.122Z,94.02
2018-06-28T05:53:53.120Z,94.12
2018-06-28T05:54:53.112Z,93.16
2018-06-28T05:55:53.109Z,93.74
2018-06-28T05:56:53.103Z,95.65
2018-06-28T05:57:53.098Z,94.89
2018-06-28T05:58:53.095Z,93.84
2018-06-28T05:59:53.094Z,93.93
2018-06-28T06:00:53.086Z,92.97
2018-06-28T06:01:53.073Z,92.3
2018-06-28T06:02:53.066Z,90.2
2018-06-28T06:03:53.064Z,89.05
2018-06-28T06:04:52.800Z,88.67
2018-06-28T06:05:53.051Z,88.95
2018-06-28T06:06:53.049Z,88.57
2018-06-28T06:07:53.038Z,90.67
2018-06-28T06:08:53.036Z,92.78
2018-06-28T06:09:53.034Z,92.88
2018-06-28T06:10:52.820Z,93.74
2018-06-28T06:11:53.015Z,93.45
2018-06-28T06:12:52.756Z,93.07
2018-06-28T06:13:53.009Z,92.78
2018-06-28T06:14:53.003Z,92.49
2018-06-28T06:15:52.997Z,92.21
2018-06-28T06:16:52.990Z,91.63
2018-06-28T06:17:52.728Z,92.49
2018-06-28T06:18:52.722Z,92.88
2018-06-28T06:19:52.976Z,94.12
2018-06-28T06:20:52.967Z,94.41
2018-06-28T06:21:52.967Z,95.17
2018-06-28T06:22:52.955Z,94.79
2018-06-28T06:23:52.952Z,94.41
2018-06-28T06:24:52.948Z,94.02
2018-06-28T06:25:52.944Z,93.64
2018-06-28T06:26:52.935Z,92.73
2018-06-28T06:27:52.932Z,92.73
2018-06-28T06:28:52.669Z,94.93
2018-06-28T06:29:52.924Z,96.18
2018-06-28T06:30:52.913Z,96.7
2018-06-28T06:31:52.912Z,96.7
2018-06-28T06:32:52.913Z,96.89
2018-06-28T06:33:52.902Z,97.28
2018-06-28T06:34:52.894Z,99.58
2018-06-28T06:35:52.893Z,99.99
2018-06-28T06:36:52.886Z,99.99
2018-06-28T06:37:52.883Z,99.99
2018-06-28T06:38:52.880Z,99.99
2018-06-28T06:39:52.872Z,99.99
2018-06-28T06:40:52.868Z,99.99
2018-06-28T06:41:52.870Z,99.99
2018-06-28T06:42:52.860Z,99.99
2018-06-28T06:43:52.597Z,99.99
2018-06-28T06:44:52.854Z,99.99
2018-06-28T06:45:52.851Z,99.99
2018-06-28T06:46:52.584Z,99.99
2018-06-28T06:47:52.852Z,99.99
2018-06-28T06:48:52.930Z,99.99
2018-06-28T06:49:52.833Z,99.99
2018-06-28T06:50:52.618Z,99.99
2018-06-28T06:51:52.820Z,99.99
2018-06-28T06:52:52.813Z,99.99
2018-06-28T06:53:52.809Z,99.99
2018-06-28T06:54:52.807Z,99.99
2018-06-28T06:55:52.806Z,99.99
2018-06-28T06:56:52.540Z,99.99
2018-06-28T06:57:52.796Z,99.99
2018-06-28T06:58:52.531Z,99.99
2018-06-28T06:59:52.782Z,99.99
2018-06-28T07:00:52.524Z,99.99
2018-06-28T07:01:52.776Z,99.99
2018-06-28T07:02:52.513Z,99.99
2018-06-28T07:03:52.770Z,99.99
2018-06-28T07:04:52.769Z,99.99
2018-06-28T07:05:52.760Z,99.99
2018-06-28T07:06:52.763Z,99.99
2018-06-28T07:07:52.762Z,99.99
2018-06-28T07:08:52.493Z,99.99
2018-06-28T07:09:52.747Z,95.07
2018-06-28T07:10:52.745Z,93.04
2018-06-28T07:11:52.743Z,85.61
2018-06-28T07:12:52.746Z,81.7
2018-06-28T07:13:52.741Z,79.62
2018-06-28T07:14:52.738Z,77.63
2018-06-28T07:15:52.749Z,76.86
2018-06-28T07:16:52.739Z,76.82
2018-06-28T07:17:52.736Z,78.75
2018-06-28T07:18:52.735Z,77.69
2018-06-28T07:19:52.730Z,77.5
2018-06-28T07:20:52.735Z,80.58
2018-06-28T07:21:52.735Z,81.35
2018-06-28T07:22:53.103Z,80.97
2018-06-28T07:23:52.742Z,75.47
2018-06-28T07:24:52.744Z,73.86
2018-06-28T07:25:52.736Z,70.42
2018-06-28T07:26:52.744Z,71.72
2018-06-28T07:27:52.740Z,65.66
2018-06-28T07:28:52.741Z,64.53
2018-06-28T07:29:52.747Z,65.27
2018-06-28T07:30:52.485Z,67.66
2018-06-28T07:31:52.743Z,67.17
2018-06-28T07:32:52.757Z,65.17
2018-06-28T07:33:52.743Z,67.24
2018-06-28T07:34:52.768Z,65.53
2018-06-28T07:35:52.782Z,62.49
2018-06-28T07:36:52.753Z,61.26
2018-06-28T07:37:52.747Z,61.07
2018-06-28T07:38:52.751Z,63.01
2018-06-28T07:39:52.751Z,60.17
2018-06-28T07:40:52.497Z,58.69
2018-06-28T07:41:52.949Z,62.5
2018-06-28T07:42:52.760Z,65.37
2018-06-28T07:43:52.502Z,68.14
2018-06-28T07:44:52.504Z,71
2018-06-28T07:45:52.507Z,75.22
2018-06-28T07:46:52.889Z,78.11
2018-06-28T07:47:52.513Z,78.5
2018-06-28T07:48:52.767Z,75.93
2018-06-28T07:49:52.776Z,78.89
2018-06-28T07:50:52.771Z,82.75
2018-06-28T07:51:52.515Z,87.34
2018-06-28T07:52:52.516Z,88.98
2018-06-28T07:53:52.514Z,86.33
2018-06-28T07:54:52.775Z,87.97
2018-06-28T07:55:52.531Z,90.63
2018-06-28T07:56:52.777Z,91.36
2018-06-28T07:57:52.778Z,94.82
2018-06-28T07:58:52.791Z,96.61
2018-06-28T07:59:52.781Z,98.72
2018-06-28T08:00:52.780Z,99.99
2018-06-28T08:01:52.782Z,99.99
2018-06-28T08:02:52.525Z,99.99
2018-06-28T08:03:52.783Z,99.99
2018-06-28T08:04:52.783Z,99.99
2018-06-28T08:05:52.786Z,99.99
2018-06-28T08:06:52.523Z,99.99
2018-06-28T08:07:52.787Z,99.99
2018-06-28T08:08:52.783Z,99.99
2018-06-28T08:09:53.017Z,99.99
2018-06-28T08:10:52.782Z,99.99
2018-06-28T08:11:52.783Z,99.99
2018-06-28T08:12:52.780Z,99.99
2018-06-28T08:13:52.781Z,99.99
2018-06-28T08:14:52.784Z,99.79
2018-06-28T08:15:52.781Z,99.99
2018-06-28T08:16:52.781Z,99.84
2018-06-28T08:17:52.779Z,99.16
2018-06-28T08:18:52.785Z,98.49
2018-06-28T08:19:52.523Z,97.42
2018-06-28T08:20:52.780Z,95.11
2018-06-28T08:21:52.779Z,94.96
2018-06-28T08:22:52.781Z,96.51
2018-06-28T08:23:52.523Z,95.88
2018-06-28T08:24:52.781Z,96.17
2018-06-28T08:25:52.781Z,94.43
2018-06-28T08:26:52.889Z,94.82
2018-06-28T08:27:52.781Z,94.34
2018-06-28T08:28:52.778Z,92.89
2018-06-28T08:29:52.780Z,93.85
2018-06-28T08:30:52.782Z,93.76
2018-06-28T08:31:52.779Z,93.18
2018-06-28T08:32:52.779Z,89.42
2018-06-28T08:33:52.781Z,94.15
2018-06-28T08:34:52.524Z,94.2
2018-06-28T08:35:52.863Z,95.45
2018-06-28T08:36:52.780Z,97.91
2018-06-28T08:37:52.782Z,98.44
2018-06-28T08:38:52.778Z,97.72
2018-06-28T08:39:52.786Z,99.99
2018-06-28T08:40:52.782Z,99.99
2018-06-28T08:41:52.520Z,99.99
2018-06-28T08:42:52.777Z,99.99
2018-06-28T08:43:52.776Z,99.99
2018-06-28T08:44:52.780Z,99.99
2018-06-28T08:45:52.519Z,99.99
2018-06-28T08:46:52.777Z,99.99
2018-06-28T08:47:52.519Z,99.99
2018-06-28T08:48:52.834Z,99.99
2018-06-28T08:49:52.774Z,99.99
2018-06-28T08:50:52.774Z,99.99
2018-06-28T08:51:52.772Z,99.99
2018-06-28T08:52:52.771Z,99.99
2018-06-28T08:53:52.773Z,99.99
2018-06-28T08:54:52.781Z,99.99
2018-06-28T08:55:52.773Z,99.99
2018-06-28T08:56:52.773Z,99.99
2018-06-28T08:57:53.052Z,99.99
2018-06-28T08:58:52.770Z,99.99
2018-06-28T08:59:52.519Z,99.99
2018-06-28T09:00:52.774Z,99.99
2018-06-28T09:01:52.770Z,99.99
2018-06-28T09:02:52.513Z,99.99
2018-06-28T09:03:52.769Z,99.99
2018-06-28T09:04:52.769Z,99.99
2018-06-28T09:05:52.547Z,99.99
2018-06-28T09:06:52.769Z,99.99
2018-06-28T09:07:52.767Z,99.99
2018-06-28T09:08:52.769Z,99.99
2018-06-28T09:09:52.766Z,99.99
2018-06-28T09:10:52.509Z,99.99
2018-06-28T09:11:52.506Z,99.99
2018-06-28T09:12:52.765Z,99.99
2018-06-28T09:13:52.762Z,99.99
2018-06-28T09:14:52.766Z,99.99
2018-06-28T09:15:52.764Z,99.99
2018-06-28T09:16:52.764Z,99.99
2018-06-28T09:17:52.761Z,99.99
2018-06-28T09:18:52.759Z,99.99
2018-06-28T09:19:52.762Z,99.99
2018-06-28T09:20:52.504Z,99.99
2018-06-28T09:21:52.761Z,99.99
2018-06-28T09:22:52.836Z,99.99
2018-06-28T09:23:52.758Z,99.99
2018-06-28T09:24:52.760Z,99.99
2018-06-28T09:25:52.500Z,99.99
2018-06-28T09:26:52.762Z,99.99
2018-06-28T09:27:52.501Z,99.99
2018-06-28T09:28:52.501Z,99.99
2018-06-28T09:29:52.780Z,99.99
2018-06-28T09:30:52.761Z,99.99
2018-06-28T09:31:52.759Z,99.99
2018-06-28T09:32:52.762Z,99.99
2018-06-28T09:33:52.768Z,99.99
2018-06-28T09:34:52.759Z,99.99
2018-06-28T09:35:52.618Z,99.99
2018-06-28T09:36:52.754Z,99.99
2018-06-28T09:37:52.759Z,99.99
2018-06-28T09:38:52.754Z,99.99
2018-06-28T09:39:52.764Z,99.99
2018-06-28T09:40:52.755Z,99.99
2018-06-28T09:41:52.754Z,99.99
2018-06-28T09:42:52.753Z,99.99
2018-06-28T09:43:52.757Z,99.99
2018-06-28T09:44:52.765Z,99.99
2018-06-28T09:45:52.764Z,99.99
2018-06-28T09:46:52.756Z,99.99
2018-06-28T09:47:52.749Z,99.99
2018-06-28T09:48:52.759Z,99.99
2018-06-28T09:49:52.752Z,99.99
2018-06-28T09:50:52.750Z,99.99
2018-06-28T09:51:52.751Z,99.99
2018-06-28T09:52:52.763Z,99.99
2018-06-28T09:53:52.749Z,98.15
2018-06-28T09:54:52.562Z,99.79
2018-06-28T09:55:52.750Z,97.72
2018-06-28T09:56:52.751Z,99.88
2018-06-28T09:57:52.758Z,99.99
2018-06-28T09:58:52.751Z,94
2018-06-28T09:59:52.757Z,91.11
2018-06-28T10:00:52.752Z,91.98
2018-06-28T10:01:52.754Z,88.31
2018-06-28T10:02:52.756Z,90.34
2018-06-28T10:03:52.496Z,90.05
2018-06-28T10:04:52.753Z,87.45
2018-06-28T10:05:52.756Z,87.06
2018-06-28T10:06:52.810Z,86.77
2018-06-28T10:07:52.498Z,86.87
2018-06-28T10:08:52.752Z,83.88
2018-06-28T10:09:52.752Z,84.55
2018-06-28T10:10:52.501Z,83.69
2018-06-28T10:11:52.759Z,85.13
2018-06-28T10:12:52.757Z,85.23
2018-06-28T10:13:52.758Z,84.84
2018-06-28T10:14:53.020Z,84.84
2018-06-28T10:15:52.759Z,83.3
2018-06-28T10:16:52.763Z,84.84
2018-06-28T10:17:52.761Z,83.07
2018-06-28T10:18:52.757Z,82.01
2018-06-28T10:19:52.764Z,84.61
2018-06-28T10:20:52.504Z,85.77
2018-06-28T10:21:52.502Z,87.5
2018-06-28T10:22:52.776Z,86.35
2018-06-28T10:23:52.780Z,87.94
2018-06-28T10:24:52.769Z,88.04
2018-06-28T10:25:52.762Z,88.9
2018-06-28T10:26:52.762Z,86.15
2018-06-28T10:27:52.763Z,84.38
2018-06-28T10:28:52.765Z,84.47
2018-06-28T10:29:52.759Z,84.61
2018-06-28T10:30:52.764Z,84.95
2018-06-28T10:31:52.505Z,86.78
2018-06-28T10:32:52.938Z,83.31
2018-06-28T10:33:52.766Z,84.09
2018-06-28T10:34:52.767Z,86.98
2018-06-28T10:35:52.763Z,82.59
2018-06-28T10:36:52.766Z,83.84
2018-06-28T10:37:52.763Z,82.01
2018-06-28T10:38:52.764Z,83.36
2018-06-28T10:39:52.766Z,84.8
2018-06-28T10:40:52.807Z,83.94
2018-06-28T10:41:52.769Z,87.6
2018-06-28T10:42:52.765Z,84.8
2018-06-28T10:43:52.768Z,86.35
2018-06-28T10:44:52.507Z,88.17
2018-06-28T10:45:52.766Z,88.04
2018-06-28T10:46:52.769Z,85.34
2018-06-28T10:47:52.818Z,87.46
2018-06-28T10:48:52.771Z,86.11
2018-06-28T10:49:52.764Z,87.55
2018-06-28T10:50:52.765Z,91.17
2018-06-28T10:51:52.507Z,90.97
2018-06-28T10:52:52.762Z,91.84
2018-06-28T10:53:52.768Z,91.36
2018-06-28T10:54:52.520Z,92.32
2018-06-28T10:55:52.764Z,92.22
2018-06-28T10:56:52.778Z,92.32
2018-06-28T10:57:52.764Z,94.64
2018-06-28T10:58:52.764Z,94.92
2018-06-28T10:59:52.763Z,93.09
2018-06-28T11:00:52.760Z,94.06
2018-06-28T11:01:52.925Z,93.87
2018-06-28T11:02:52.761Z,92.61
2018-06-28T11:03:52.768Z,94.54
2018-06-28T11:04:52.502Z,92.42
2018-06-28T11:05:52.504Z,92.03
2018-06-28T11:06:52.502Z,92.18
2018-06-28T11:07:52.762Z,91.31
2018-06-28T11:08:52.765Z,90.16
2018-06-28T11:09:52.762Z,86.59
2018-06-28T11:10:52.502Z,88.81
2018-06-28T11:11:52.502Z,88.27
2018-06-28T11:12:52.763Z,87.02
2018-06-28T11:13:52.760Z,87.4
2018-06-28T11:14:52.502Z,85.71
2018-06-28T11:15:52.765Z,85.81
2018-06-28T11:16:52.761Z,85.17
2018-06-28T11:17:52.765Z,79.77
2018-06-28T11:18:52.755Z,79.39
2018-06-28T11:19:52.762Z,78.52
2018-06-28T11:20:52.758Z,74.76
2018-06-28T11:21:52.758Z,76.59
2018-06-28T11:22:52.760Z,78.52
2018-06-28T11:23:52.501Z,85.37
2018-06-28T11:24:52.775Z,80.26
2018-06-28T11:25:52.759Z,73.79
2018-06-28T11:26:52.759Z,72.92
2018-06-28T11:27:52.760Z,75.2
2018-06-28T11:28:52.765Z,77.71
2018-06-28T11:29:52.768Z,75.84
2018-06-28T11:30:52.761Z,77.96
2018-06-28T11:31:52.762Z,76.42
2018-06-28T11:32:52.504Z,75.36
2018-06-28T11:33:52.505Z,74.01
2018-06-28T11:34:52.767Z,74.3
2018-06-28T11:35:52.762Z,73.43
2018-06-28T11:36:52.762Z,71.06
2018-06-28T11:37:52.767Z,67
2018-06-28T11:38:52.762Z,67.58
2018-06-28T11:39:52.764Z,69.93
2018-06-28T11:40:52.763Z,64.05
2018-06-28T11:41:52.762Z,62.6
2018-06-28T11:42:52.769Z,61.28
2018-06-28T11:43:52.763Z,61.19
2018-06-28T11:44:52.768Z,60.89
2018-06-28T11:45:52.769Z,58.32
2018-06-28T11:46:52.771Z,60.25
2018-06-28T11:47:52.769Z,60.54
2018-06-28T11:48:52.767Z,57.54
2018-06-28T11:49:52.767Z,58.22
2018-06-28T11:50:52.769Z,58.8
2018-06-28T11:51:52.772Z,57.16
2018-06-28T11:52:52.774Z,58
2018-06-28T11:53:52.771Z,57.42
2018-06-28T11:54:52.773Z,58.1
2018-06-28T11:55:52.776Z,58.48
2018-06-28T11:56:52.778Z,60.89
2018-06-28T11:57:52.523Z,61.16
2018-06-28T11:58:52.778Z,61.74
2018-06-28T11:59:52.777Z,61.19
2018-06-28T12:00:52.780Z,62.44
2018-06-28T12:01:52.782Z,61.09
2018-06-28T12:02:52.782Z,59.55
2018-06-28T12:03:52.783Z,60.89
2018-06-28T12:04:52.791Z,61.16
2018-06-28T12:05:52.785Z,61.74
2018-06-28T12:06:52.528Z,61.35
2018-06-28T12:07:52.785Z,62.22
2018-06-28T12:08:52.787Z,61.06
2018-06-28T12:09:52.807Z,64.4
2018-06-28T12:10:52.787Z,63.54
2018-06-28T12:11:52.792Z,65.53
2018-06-28T12:12:52.795Z,67.94
2018-06-28T12:13:52.796Z,66.78
2018-06-28T12:14:52.793Z,68.61
2018-06-28T12:15:52.794Z,70.54
2018-06-28T12:16:52.797Z,72.75
2018-06-28T12:17:52.794Z,70.25
2018-06-28T12:18:52.792Z,68.71
2018-06-28T12:19:52.537Z,69.19
2018-06-28T12:20:52.797Z,70.15
2018-06-28T12:21:52.792Z,69.15
2018-06-28T12:22:52.793Z,68.48
2018-06-28T12:23:52.799Z,66.94
2018-06-28T12:24:52.796Z,68.96
2018-06-28T12:25:52.795Z,68.1
2018-06-28T12:26:52.793Z,70.31
2018-06-28T12:27:52.797Z,73.26
2018-06-28T12:28:52.796Z,73.16
2018-06-28T12:29:52.796Z,73.36
2018-06-28T12:30:52.795Z,78.36
2018-06-28T12:31:52.809Z,82.21
2018-06-28T12:32:52.536Z,81.79
2018-06-28T12:33:52.794Z,80.63
2018-06-28T12:34:52.800Z,83.14
2018-06-28T12:35:52.794Z,83.81
2018-06-28T12:36:52.799Z,83.62
2018-06-28T12:37:52.795Z,85.44
2018-06-28T12:38:52.797Z,87.37
2018-06-28T12:39:52.792Z,91.51
2018-06-28T12:40:52.796Z,89.15
2018-06-28T12:41:52.793Z,85.74
2018-06-28T12:42:52.792Z,88.62
2018-06-28T12:43:52.787Z,87.95
2018-06-28T12:44:52.795Z,92.38
2018-06-28T12:45:52.790Z,91.99
2018-06-28T12:46:52.529Z,92.57
2018-06-28T12:47:52.790Z,96.99
2018-06-28T12:48:52.787Z,98.39
2018-06-28T12:49:52.530Z,95.79
2018-06-28T12:50:52.789Z,98.63
2018-06-28T12:51:52.796Z,99.99
2018-06-28T12:52:52.787Z,99.99
2018-06-28T12:53:52.789Z,99.99
2018-06-28T12:54:52.783Z,99.99
2018-06-28T12:55:52.794Z,99.99